Wilmington, North Carolina
Current Conditions -  °F | °C
As of 5:53 AM on Friday 24 Oct 2014 (Local Time) from KILM Reporting Station
Clear Clear  
Wind Chill: 47°   Ceiling: Unl
Heat Index: 49°   Visibility: 10mi
Dew Point: 45°   Wind: 5mph
Humidity: 86%   Direction: 310°NW
Pressure: 30"   Gusts: NA
Location:  34.24°N, 77.94°W
Report Text: KILM 240953Z AUTO 31004KT 10SM CLR 09/07 A3000 RMK AO2 SLP160 T00940072
Loading
Personal Weather Stations






























Interactive Weather Map
Tropical Storm Tracking
New forecast layout! Learn more

10-Day Weather Forecast

Advertisements
Track Severe Weather on mobile